Time;durP1;ratioP1;P1;durP2;ratioP2;P2;SDS_P1;SDS_P2;PMS_P1;PMS_P2;Temp;Humidity;BMP_temperature;BMP_pressure;BME280_temperature;BME280_humidity;BME280_pressure;Samples;Min_cycle;Max_cycle;Signal;HPM_P1;HPM_P2
2021/12/16 00:09:29;;;;;;;35.65;8.30;;;;;;;8.76;96.08;103347.25;5055197;28;20082;-42
2021/12/16 00:35:51;;;;;;;29.63;8.65;;;;;;;8.79;95.75;103349.75;5053069;28;20075;-43
2021/12/16 00:38:17;;;;;;;34.05;8.55;;;;;;;8.78;95.92;103352.53;5054561;28;20033;-43
2021/12/16 00:40:43;;;;;;;36.55;9.13;;;;;;;8.76;95.88;103355.31;5054420;28;20028;-44
2021/12/16 00:43:22;;;;;;;30.00;8.65;;;;;;;8.75;96.18;103355.44;5037166;28;20025;-44
2021/12/16 00:46:12;;;;;;;35.40;8.90;;;;;;;8.74;96.33;103359.06;5048824;28;20035;-43
2021/12/16 00:54:11;;;;;;;43.47;10.35;;;;;;;8.65;96.50;103349.84;5034856;28;20056;-44
2021/12/16 00:56:43;;;;;;;32.03;8.45;;;;;;;8.62;96.51;103354.59;5034835;28;20365;-43
2021/12/16 00:59:11;;;;;;;32.20;10.25;;;;;;;8.58;96.71;103359.28;5034822;28;20030;-44
2021/12/16 01:34:43;;;;;;;25.67;8.73;;;;;;;7.59;97.36;103385.63;5054283;28;20451;-43
2021/12/16 01:50:05;;;;;;;;;;;;;;;7.29;97.79;103389.31;5054171;28;20037;-43
2021/12/16 01:55:39;;;;;;;29.65;9.52;;;;;;;7.35;98.99;103396.97;5052534;28;20167;-44
2021/12/16 01:58:27;;;;;;;28.65;9.18;;;;;;;7.28;99.24;103408.19;5033740;28;20128;-43
2021/12/16 02:01:28;;;;;;;19.45;7.80;;;;;;;7.20;98.48;103405.97;5044792;28;20079;-44
2021/12/16 02:04:00;;;;;;;21.95;8.27;;;;;;;7.16;98.56;103416.03;5053358;28;20113;-44
2021/12/16 02:09:14;;;;;;;20.65;7.88;;;;;;;7.15;98.88;103416.13;5033680;28;20120;-43
2021/12/16 02:28:33;;;;;;;28.50;9.93;;;;;;;6.87;97.92;103431.22;5041921;28;20435;-43
2021/12/16 02:36:30;;;;;;;26.38;8.70;;;;;;;6.75;98.61;103440.88;5051547;28;20049;-44
2021/12/16 02:39:06;;;;;;;29.13;9.30;;;;;;;6.74;98.52;103439.16;5051409;28;20021;-43
2021/12/16 02:41:31;;;;;;;33.30;9.27;;;;;;;6.66;98.32;103441.44;5045921;28;20433;-43
2021/12/16 02:49:21;;;;;;;33.13;9.02;;;;;;;6.65;99.21;103437.00;5032587;28;20128;-43
2021/12/16 02:51:47;;;;;;;24.30;8.82;;;;;;;6.66;98.85;103438.75;5033784;28;20108;-42
2021/12/16 02:54:14;;;;;;;30.25;9.65;;;;;;;6.75;99.30;103445.38;5031197;28;20029;-43
2021/12/16 02:56:39;;;;;;;19.65;9.45;;;;;;;6.81;99.51;103448.50;5032593;28;20021;-43
2021/12/16 02:59:05;;;;;;;28.95;9.27;;;;;;;6.86;99.48;103439.34;5050618;28;20457;-42
2021/12/16 03:01:41;;;;;;;23.83;10.68;;;;;;;6.92;99.56;103438.97;5052567;28;20025;-43
2021/12/16 03:04:10;;;;;;;23.48;10.30;;;;;;;6.97;100.00;103436.88;5051322;28;20119;-43
2021/12/16 03:06:37;;;;;;;26.77;9.82;;;;;;;6.95;99.31;103438.78;5052649;28;20027;-42
2021/12/16 03:09:05;;;;;;;28.40;9.30;;;;;;;6.96;99.28;103437.84;5035113;28;20037;-43
2021/12/16 03:11:42;;;;;;;;;;;;;;;6.99;99.27;103434.97;5050706;28;20287;-43
2021/12/16 03:16:49;;;;;;;30.35;10.18;;;;;;;7.05;99.18;103429.22;5051043;28;20059;-42
2021/12/16 03:21:51;;;;;;;30.00;10.23;;;;;;;7.07;99.21;103427.31;5052486;28;20044;-43
2021/12/16 03:38:05;;;;;;;29.77;10.48;;;;;;;7.28;99.35;103443.84;5052110;28;20495;-43
2021/12/16 03:40:31;;;;;;;23.92;10.88;;;;;;;7.36;99.44;103444.22;5051998;28;20024;-44
2021/12/16 03:43:02;;;;;;;30.02;11.18;;;;;;;7.43;99.45;103440.22;5052104;28;20021;-44
2021/12/16 03:48:27;;;;;;;33.55;13.38;;;;;;;7.69;100.00;103435.88;5036151;28;20047;-44
2021/12/16 03:50:52;;;;;;;28.33;12.40;;;;;;;7.81;99.94;103438.69;5050726;28;20055;-44
2021/12/16 03:53:18;;;;;;;36.10;13.32;;;;;;;7.85;100.00;103441.09;5051785;28;20064;-42
2021/12/16 03:55:45;;;;;;;30.40;13.23;;;;;;;7.91;100.00;103435.31;5051879;28;20040;-43
2021/12/16 03:58:11;;;;;;;31.50;12.23;;;;;;;8.01;99.75;103435.56;5051069;28;20033;-42
2021/12/16 04:00:42;;;;;;;32.67;13.23;;;;;;;8.08;99.50;103420.81;5051835;28;20033;-42
2021/12/16 04:03:08;;;;;;;33.53;13.18;;;;;;;8.13;99.53;103429.38;5053794;28;20033;-44
2021/12/16 04:05:33;;;;;;;33.08;12.68;;;;;;;8.21;99.26;103438.75;5052621;28;20056;-42
2021/12/16 04:07:59;;;;;;;28.15;12.35;;;;;;;8.27;99.53;103441.03;5055074;28;20029;-43
2021/12/16 04:10:35;;;;;;;26.88;12.77;;;;;;;8.33;99.17;103440.59;5055615;28;20021;-43
2021/12/16 04:13:04;;;;;;;28.20;12.55;;;;;;;8.35;98.84;103444.06;5056024;28;20036;-45
2021/12/16 04:15:29;;;;;;;30.67;11.95;;;;;;;8.37;98.54;103444.78;5055199;28;20479;-44
2021/12/16 04:17:55;;;;;;;26.15;11.93;;;;;;;8.40;98.47;103452.69;5055429;28;20029;-44
2021/12/16 04:20:22;;;;;;;26.52;11.98;;;;;;;8.48;98.44;103458.41;5058473;28;20500;-42
2021/12/16 04:22:47;;;;;;;23.48;11.40;;;;;;;8.52;97.99;103462.56;5050868;28;20037;-43
2021/12/16 04:25:19;;;;;;;20.40;11.35;;;;;;;8.50;97.86;103459.13;5064972;28;20109;-44
2021/12/16 04:27:46;;;;;;;22.48;10.95;;;;;;;8.50;97.54;103459.13;5057366;28;20021;-43
2021/12/16 04:30:14;;;;;;;29.70;11.65;;;;;;;8.48;97.01;103449.50;5075124;28;20024;-43
2021/12/16 04:32:39;;;;;;;27.73;11.75;;;;;;;8.46;97.25;103452.25;5064173;28;20069;-43
2021/12/16 04:35:06;;;;;;;26.80;11.20;;;;;;;8.43;97.19;103457.84;5053719;28;20056;-43
2021/12/16 04:37:31;;;;;;;36.53;11.63;;;;;;;8.40;96.96;103452.69;5054692;28;20021;-43
2021/12/16 04:39:59;;;;;;;35.78;11.65;;;;;;;8.40;97.15;103455.38;5054572;28;20032;-43
2021/12/16 04:42:26;;;;;;;31.08;11.55;;;;;;;8.36;97.00;103445.75;5046883;28;20137;-43
2021/12/16 04:44:51;;;;;;;29.73;12.63;;;;;;;8.35;97.42;103447.59;5038321;28;20123;-43
2021/12/16 04:47:17;;;;;;;33.22;11.55;;;;;;;8.33;97.30;103452.19;5035912;28;20029;-44
2021/12/16 04:49:42;;;;;;;23.88;10.98;;;;;;;8.33;97.28;103445.97;5033624;28;20040;-44
2021/12/16 04:52:13;;;;;;;29.10;11.50;;;;;;;8.33;96.96;103456.72;5034870;28;20366;-43
2021/12/16 04:54:39;;;;;;;24.55;11.07;;;;;;;8.34;97.13;103445.00;5034980;28;20017;-43
2021/12/16 04:57:05;;;;;;;25.05;11.57;;;;;;;8.34;97.09;103448.53;5034506;28;20079;-43
2021/12/16 04:59:32;;;;;;;24.52;10.32;;;;;;;8.32;96.89;103454.97;5034937;28;20428;-45
2021/12/16 05:02:08;;;;;;;28.23;10.80;;;;;;;8.30;96.75;103462.28;5034392;28;20048;-43
2021/12/16 05:04:33;;;;;;;29.88;10.60;;;;;;;8.31;97.04;103470.22;5046605;28;20119;-43
2021/12/16 05:06:59;;;;;;;25.95;10.40;;;;;;;8.31;96.50;103464.00;5054484;28;20083;-44
2021/12/16 05:10:01;;;;;;;25.55;10.27;;;;;;;8.28;96.90;103458.84;5054435;28;20029;-43
2021/12/16 05:12:12;;;;;;;20.95;9.75;;;;;;;8.30;96.62;103454.22;5046668;28;20470;-42
2021/12/16 05:14:38;;;;;;;;;;;;;;;8.29;96.91;103465.91;5037542;28;20052;-43
2021/12/16 05:17:10;;;;;;;20.75;9.48;;;;;;;8.29;96.70;103477.53;5052514;28;20002;-43
2021/12/16 05:19:38;;;;;;;26.65;10.60;;;;;;;8.33;96.63;103478.19;5054060;28;20040;-43
2021/12/16 05:24:49;;;;;;;19.60;9.50;;;;;;;8.27;96.43;103473.22;5054022;28;20044;-43
2021/12/16 05:27:14;;;;;;;26.35;9.55;;;;;;;8.20;95.98;103475.44;5053603;28;20032;-43
2021/12/16 05:29:39;;;;;;;21.40;10.00;;;;;;;8.19;95.91;103486.25;5038336;28;20033;-43
2021/12/16 05:32:06;;;;;;;22.65;9.27;;;;;;;8.17;96.20;103482.84;5033252;28;20449;-44
2021/12/16 05:34:31;;;;;;;18.23;9.45;;;;;;;8.18;96.21;103485.41;5033421;28;20033;-44
2021/12/16 05:36:57;;;;;;;21.92;10.52;;;;;;;8.20;96.43;103498.72;5032129;28;20334;-43
2021/12/16 05:39:23;;;;;;;23.83;9.82;;;;;;;8.17;96.41;103498.94;5032090;28;20124;-43
2021/12/16 05:41:48;;;;;;;22.05;9.75;;;;;;;8.17;96.30;103491.75;5033640;28;20535;-44
2021/12/16 05:44:14;;;;;;;28.25;9.90;;;;;;;8.18;96.28;103484.56;5033997;28;20030;-43
2021/12/16 05:46:40;;;;;;;22.35;10.27;;;;;;;8.18;96.49;103492.59;5036644;28;20026;-42
2021/12/16 05:49:08;;;;;;;19.92;9.98;;;;;;;8.14;96.49;103502.69;5037704;28;20048;-42
2021/12/16 05:51:36;;;;;;;22.35;10.05;;;;;;;8.12;96.43;103508.13;5041500;28;20036;-43
2021/12/16 05:54:04;;;;;;;18.17;9.75;;;;;;;8.07;96.30;103499.53;5051875;28;20393;-44
2021/12/16 05:56:29;;;;;;;27.10;10.35;;;;;;;8.04;96.51;103499.72;5052390;28;20428;-44
2021/12/16 05:58:55;;;;;;;21.65;10.38;;;;;;;8.04;96.63;103505.09;5052720;28;20028;-43
2021/12/16 06:01:26;;;;;;;31.90;11.38;;;;;;;7.98;96.58;103489.41;5052407;28;20032;-45
2021/12/16 06:03:52;;;;;;;23.30;10.80;;;;;;;7.99;96.94;103498.31;5051419;28;20035;-44
2021/12/16 06:06:18;;;;;;;26.70;10.75;;;;;;;7.94;96.89;103501.28;5050581;28;20429;-42
2021/12/16 06:08:45;;;;;;;25.35;11.30;;;;;;;7.91;97.04;103501.50;5048268;28;20413;-43
2021/12/16 06:11:16;;;;;;;28.77;10.93;;;;;;;7.88;97.28;103499.00;5034825;28;20115;-43
2021/12/16 06:13:57;;;;;;;21.60;10.45;;;;;;;7.85;97.45;103507.25;5048317;28;20102;-44
2021/12/16 06:27:22;;;;;;;30.35;12.85;;;;;;;7.76;97.98;103516.72;5033518;28;20495;-42
2021/12/16 06:29:48;;;;;;;31.30;12.43;;;;;;;7.76;98.18;103526.59;5045360;28;20025;-43
2021/12/16 06:32:14;;;;;;;26.58;11.75;;;;;;;7.72;98.47;103527.78;5047985;28;20039;-43
2021/12/16 06:34:42;;;;;;;27.08;12.27;;;;;;;7.67;97.96;103538.78;5052209;28;20021;-43
2021/12/16 06:37:08;;;;;;;26.73;12.77;;;;;;;7.63;98.06;103524.69;5045852;28;20116;-43
2021/12/16 06:39:34;;;;;;;29.90;11.98;;;;;;;7.60;98.24;103516.84;5032043;28;20424;-43
2021/12/16 06:41:59;;;;;;;28.10;13.20;;;;;;;7.54;98.02;103537.81;5034876;28;20036;-44
2021/12/16 06:44:32;;;;;;;28.92;12.52;;;;;;;7.52;98.20;103545.94;5050929;28;20128;-43
2021/12/16 06:47:07;;;;;;;30.88;12.40;;;;;;;7.46;97.96;103540.97;5042037;28;20037;-43
2021/12/16 06:49:35;;;;;;;33.08;12.90;;;;;;;7.38;97.80;103537.91;5045059;28;20036;-44
2021/12/16 06:52:05;;;;;;;17.02;10.35;;;;;;;7.33;97.96;103540.03;5050834;28;20031;-44
2021/12/16 06:54:37;;;;;;;30.52;12.70;;;;;;;7.26;97.74;103545.72;5030863;28;20053;-43
2021/12/16 06:59:33;;;;;;;40.92;14.60;;;;;;;7.24;97.89;103554.81;5051518;28;20512;-44
2021/12/16 07:02:06;;;;;;;33.38;13.32;;;;;;;7.20;98.04;103554.16;5045767;28;20116;-44
2021/12/16 07:04:31;;;;;;;30.30;13.32;;;;;;;7.19;98.09;103555.13;5046811;28;20029;-44
2021/12/16 07:06:57;;;;;;;28.13;13.48;;;;;;;7.20;98.52;103567.53;5048632;28;20480;-43
2021/12/16 07:09:23;;;;;;;37.05;14.55;;;;;;;7.23;98.81;103566.50;5047672;28;20481;-43
2021/12/16 07:11:52;;;;;;;35.22;14.13;;;;;;;7.21;98.54;103566.59;5030990;28;20030;-44
2021/12/16 07:14:19;;;;;;;34.85;15.15;;;;;;;7.21;98.88;103571.97;5035665;28;20109;-43
2021/12/16 07:16:51;;;;;;;33.25;13.38;;;;;;;7.21;98.75;103581.78;5041434;28;20033;-42
2021/12/16 07:19:16;;;;;;;27.42;13.75;;;;;;;7.22;98.92;103584.38;5040253;28;20048;-43
2021/12/16 07:21:43;;;;;;;26.40;13.95;;;;;;;7.24;99.21;103579.81;5049424;28;20025;-45
2021/12/16 07:24:12;;;;;;;27.95;14.68;;;;;;;7.22;98.94;103589.75;5050976;28;20025;-45
2021/12/16 07:26:38;;;;;;;27.25;13.25;;;;;;;7.22;99.02;103595.09;5051008;28;20025;-44
2021/12/16 07:29:05;;;;;;;28.63;12.93;;;;;;;7.19;98.42;103600.66;5050924;28;20036;-43
2021/12/16 07:31:31;;;;;;;34.03;15.00;;;;;;;7.15;98.55;103601.78;5041193;28;20132;-43
2021/12/16 07:33:57;;;;;;;34.78;15.10;;;;;;;7.13;98.66;103592.97;5031796;28;20397;-43
2021/12/16 07:36:22;;;;;;;31.98;16.00;;;;;;;7.15;98.62;103596.41;5037379;28;20029;-43
2021/12/16 07:38:48;;;;;;;33.65;16.67;;;;;;;7.12;99.06;103606.47;5046181;28;20062;-44
2021/12/16 07:41:17;;;;;;;39.63;16.13;;;;;;;7.07;98.62;103612.09;5036006;28;20045;-42
2021/12/16 07:43:56;;;;;;;31.20;15.32;;;;;;;7.04;98.34;103612.28;5042410;28;20067;-42
2021/12/16 07:46:22;;;;;;;36.35;16.02;;;;;;;7.06;98.54;103613.06;5035263;28;20072;-42
2021/12/16 07:48:47;;;;;;;32.97;15.45;;;;;;;7.08;99.10;103623.66;5042098;28;20052;-42
2021/12/16 07:51:13;;;;;;;35.38;15.57;;;;;;;7.10;99.20;103641.34;5047487;28;20025;-43
2021/12/16 07:53:39;;;;;;;33.67;15.88;;;;;;;7.06;99.00;103637.16;5036429;28;20056;-43
2021/12/16 07:56:05;;;;;;;32.03;15.10;;;;;;;7.02;98.90;103640.94;5042765;28;20519;-43
2021/12/16 07:58:32;;;;;;;31.13;15.68;;;;;;;6.99;98.46;103643.81;5055017;28;20043;-43
2021/12/16 08:00:57;;;;;;;35.78;15.90;;;;;;;7.00;98.57;103651.78;5053422;28;20143;-43
2021/12/16 08:03:23;;;;;;;39.22;14.90;;;;;;;7.01;98.80;103655.31;5054246;28;20437;-42
2021/12/16 08:05:53;;;;;;;35.90;15.40;;;;;;;6.95;98.65;103650.28;5053237;28;20048;-43
2021/12/16 08:08:19;;;;;;;28.48;15.43;;;;;;;6.92;98.26;103650.47;5055151;28;20068;-43
2021/12/16 08:10:45;;;;;;;35.33;16.13;;;;;;;6.91;98.49;103648.75;5054654;28;20053;-43
2021/12/16 08:13:10;;;;;;;29.85;14.82;;;;;;;6.93;98.89;103650.41;5055084;28;20384;-42
2021/12/16 08:15:36;;;;;;;33.70;13.68;;;;;;;6.88;98.47;103651.63;5054805;28;20078;-44
2021/12/16 08:18:02;;;;;;;30.67;14.13;;;;;;;6.85;98.16;103647.31;5054993;28;20078;-43
2021/12/16 08:20:28;;;;;;;36.42;15.80;;;;;;;6.97;98.53;103653.75;5054575;28;20052;-44
2021/12/16 08:22:56;;;;;;;34.40;15.02;;;;;;;7.47;99.73;103655.25;5054713;28;20094;-44
2021/12/16 08:25:21;;;;;;;;;;;;;;;7.79;99.88;103653.25;5055163;28;20025;-44
2021/12/16 08:27:48;;;;;;;24.65;12.52;;;;;;;8.21;99.22;103656.03;5053469;28;20309;-43
2021/12/16 08:30:16;;;;;;;23.23;11.63;;;;;;;8.70;96.30;103667.19;5054218;28;20036;-43
2021/12/16 08:32:43;;;;;;;27.55;11.65;;;;;;;9.51;92.61;103670.78;5054554;28;20029;-44
2021/12/16 08:35:09;;;;;;;19.02;10.48;;;;;;;9.87;86.02;103668.22;5054711;28;20032;-44
2021/12/16 08:37:34;;;;;;;24.20;10.43;;;;;;;10.07;84.11;103669.47;5046005;28;20388;-45
2021/12/16 08:40:00;;;;;;;26.33;11.05;;;;;;;10.47;82.94;103677.41;5048214;28;20029;-45
2021/12/16 08:42:26;;;;;;;25.50;10.18;;;;;;;11.13;80.77;103682.44;5043119;28;20401;-44
2021/12/16 08:44:51;;;;;;;22.13;10.38;;;;;;;11.33;78.51;103675.53;5053464;28;20132;-44
2021/12/16 08:47:18;;;;;;;29.50;10.20;;;;;;;11.33;78.35;103680.91;5045956;28;20570;-43
2021/12/16 08:49:45;;;;;;;17.25;9.60;;;;;;;11.60;77.91;103688.72;5057500;28;20067;-45
2021/12/16 08:52:15;;;;;;;19.17;9.90;;;;;;;12.03;76.46;103691.66;5042921;28;20384;-44
2021/12/16 08:54:40;;;;;;;19.00;9.88;;;;;;;12.05;74.79;103689.66;5045470;28;20071;-44
2021/12/16 08:57:06;;;;;;;21.60;10.18;;;;;;;12.47;74.52;103700.69;5039964;28;20045;-45
2021/12/16 08:59:32;;;;;;;20.05;10.68;;;;;;;12.33;73.69;103703.66;5039641;28;20054;-45
2021/12/16 09:02:01;;;;;;;21.10;11.20;;;;;;;11.97;74.85;103711.00;5046450;28;20476;-44
2021/12/16 09:04:27;;;;;;;18.08;10.82;;;;;;;11.60;76.49;103703.06;5034848;28;20105;-44
2021/12/16 09:06:54;;;;;;;20.83;10.82;;;;;;;11.72;77.77;103713.91;5040248;28;20103;-43
2021/12/16 09:09:21;;;;;;;21.85;11.02;;;;;;;11.68;77.09;103712.41;5052147;28;20027;-44
2021/12/16 09:14:43;;;;;;;21.85;11.25;;;;;;;11.34;79.04;103704.19;5038602;28;20493;-44
2021/12/16 09:17:12;;;;;;;17.88;10.48;;;;;;;11.92;79.04;103710.50;5042061;28;20496;-43
2021/12/16 09:19:40;;;;;;;19.27;9.88;;;;;;;12.39;76.49;103713.97;5053068;28;20025;-44
2021/12/16 09:22:06;;;;;;;19.67;9.55;;;;;;;12.69;75.88;103704.34;5047251;28;20029;-44
2021/12/16 09:24:31;;;;;;;23.40;10.10;;;;;;;12.90;73.90;103707.13;5035170;28;20033;-45
2021/12/16 09:26:58;;;;;;;21.45;10.38;;;;;;;13.09;73.71;103714.59;5033212;28;20029;-45
2021/12/16 09:29:23;;;;;;;21.07;10.10;;;;;;;13.51;73.84;103717.38;5044969;28;20032;-47
2021/12/16 09:31:49;;;;;;;20.67;10.38;;;;;;;14.12;70.72;103728.31;5050900;28;20029;-48
2021/12/16 09:34:15;;;;;;;18.77;10.45;;;;;;;14.31;69.77;103716.69;5047459;28;20026;-44
2021/12/16 09:36:43;;;;;;;22.15;11.02;;;;;;;14.26;70.15;103717.09;5022806;28;20380;-44
2021/12/16 09:39:12;;;;;;;18.92;10.25;;;;;;;14.30;70.27;103722.22;5038816;28;20382;-45
2021/12/16 09:41:40;;;;;;;31.38;10.70;;;;;;;14.85;69.36;103730.84;5042992;28;20041;-44
2021/12/16 09:44:06;;;;;;;19.92;9.60;;;;;;;14.95;67.66;103725.44;5036498;28;20037;-44
2021/12/16 09:46:31;;;;;;;32.22;11.45;;;;;;;14.75;68.33;103721.88;5052509;28;20021;-45
2021/12/16 09:48:57;;;;;;;20.83;9.80;;;;;;;14.74;68.70;103723.69;5050348;28;20037;-46
2021/12/16 09:51:25;;;;;;;21.58;10.40;;;;;;;14.90;68.36;103728.56;5052108;28;20032;-45
2021/12/16 09:54:05;;;;;;;26.30;10.18;;;;;;;15.30;67.89;103731.22;5045693;28;20032;-44
2021/12/16 09:56:31;;;;;;;23.42;10.60;;;;;;;15.56;66.01;103734.19;5042013;28;20083;-44
2021/12/16 09:58:59;;;;;;;17.38;10.40;;;;;;;16.13;63.44;103739.66;5037856;28;20113;-45
2021/12/16 10:01:25;;;;;;;23.92;9.60;;;;;;;15.47;64.91;103748.63;5046857;28;20047;-44
2021/12/16 10:03:54;;;;;;;22.30;9.45;;;;;;;15.01;66.79;103744.75;5035886;28;20504;-44
2021/12/16 10:06:20;;;;;;;24.80;9.70;;;;;;;14.92;68.07;103745.56;5047554;28;20029;-45
2021/12/16 10:08:46;;;;;;;24.60;10.10;;;;;;;14.57;68.69;103746.06;5048822;28;20045;-43
2021/12/16 10:11:12;;;;;;;28.20;10.32;;;;;;;14.43;67.98;103753.53;5039857;28;20041;-44
2021/12/16 10:13:58;;;;;;;29.98;11.20;;;;;;;14.01;72.06;103752.75;5037259;28;20021;-44
2021/12/16 10:19:09;;;;;;;26.80;9.95;;;;;;;14.05;70.76;103754.19;5042900;28;20148;-44
2021/12/16 10:21:35;;;;;;;27.23;11.00;;;;;;;14.08;71.27;103763.91;5044434;28;20116;-45
2021/12/16 10:24:01;;;;;;;19.52;10.35;;;;;;;14.27;72.09;103762.16;5050973;28;20044;-44
2021/12/16 10:26:27;;;;;;;24.10;10.65;;;;;;;14.41;70.71;103758.22;5043723;28;20041;-44
2021/12/16 10:28:57;;;;;;;25.97;10.10;;;;;;;14.68;68.87;103760.34;5050252;28;20032;-43
2021/12/16 10:31:28;;;;;;;28.02;10.88;;;;;;;14.66;69.12;103758.78;5036067;28;20025;-47
2021/12/16 10:34:01;;;;;;;26.08;9.70;;;;;;;14.50;70.67;103770.94;5045878;28;20029;-44
2021/12/16 10:36:31;;;;;;;23.55;9.98;;;;;;;14.28;70.59;103776.56;5055024;28;20051;-43
2021/12/16 10:39:23;;;;;;;17.90;9.30;;;;;;;14.41;69.94;103766.38;5042600;28;20056;-46
2021/12/16 10:41:53;;;;;;;32.63;11.00;;;;;;;14.34;70.10;103772.47;5038866;28;20051;-44
2021/12/16 10:44:18;;;;;;;24.80;9.27;;;;;;;14.41;69.39;103768.22;5037804;28;20076;-47
2021/12/16 10:46:45;;;;;;;22.10;9.82;;;;;;;14.24;70.42;103767.88;5044861;28;20049;-46
2021/12/16 10:49:13;;;;;;;24.73;9.93;;;;;;;14.16;72.09;103770.34;5030618;28;20033;-45
2021/12/16 10:51:45;;;;;;;21.33;8.95;;;;;;;14.18;70.74;103771.09;5049464;28;20124;-45
2021/12/16 10:54:16;;;;;;;21.73;9.65;;;;;;;14.33;69.55;103778.88;5043727;28;20740;-45
2021/12/16 10:57:16;;;;;;;23.38;8.93;;;;;;;14.65;68.15;103773.34;5044345;28;20037;-45
2021/12/16 10:59:50;;;;;;;20.83;8.07;;;;;;;14.44;68.75;103778.78;5051822;28;20033;-46
2021/12/16 11:02:28;;;;;;;26.95;9.00;;;;;;;14.59;69.56;103777.47;5043479;28;20060;-46
2021/12/16 11:05:01;;;;;;;23.35;8.65;;;;;;;15.18;66.29;103773.03;5037901;28;20101;-44
2021/12/16 11:07:42;;;;;;;25.00;9.05;;;;;;;15.22;66.99;103774.47;5045232;28;20033;-45
2021/12/16 11:10:18;;;;;;;21.98;8.90;;;;;;;15.61;66.71;103779.88;5047278;28;20032;-47
2021/12/16 11:12:46;;;;;;;22.35;8.20;;;;;;;16.18;63.17;103769.13;5039736;28;20116;-45
2021/12/16 11:15:25;;;;;;;21.20;9.05;;;;;;;16.10;62.54;103782.59;5038024;28;20025;-46
2021/12/16 11:17:56;;;;;;;24.40;8.63;;;;;;;16.39;62.86;103777.91;5054051;28;20143;-45
2021/12/16 11:20:27;;;;;;;22.33;9.02;;;;;;;16.30;62.54;103776.09;5045386;28;20112;-45
2021/12/16 11:22:55;;;;;;;20.63;8.60;;;;;;;16.00;62.86;103769.00;5050587;28;20017;-46
2021/12/16 11:25:25;;;;;;;22.08;9.13;;;;;;;15.43;63.68;103773.47;5034043;28;20025;-46
2021/12/16 11:27:55;;;;;;;29.73;10.85;;;;;;;15.55;65.03;103770.47;5050396;28;20397;-44
2021/12/16 11:30:22;;;;;;;24.50;8.40;;;;;;;15.94;63.01;103770.47;5035657;28;20040;-45
2021/12/16 11:32:51;;;;;;;22.55;9.70;;;;;;;16.10;61.31;103760.84;5044956;28;20025;-45
2021/12/16 11:35:24;;;;;;;27.95;10.15;;;;;;;15.72;64.39;103762.66;5055148;28;20358;-47
2021/12/16 11:37:50;;;;;;;14.77;8.30;;;;;;;15.98;63.77;103758.31;5044667;28;20071;-45
2021/12/16 11:40:17;;;;;;;25.45;8.07;;;;;;;16.24;61.71;103757.66;5021042;28;20409;-47
2021/12/16 11:42:42;;;;;;;20.55;8.60;;;;;;;16.52;59.51;103753.09;5033780;28;20490;-45
2021/12/16 11:45:08;;;;;;;26.17;8.65;;;;;;;16.78;60.28;103750.56;5035873;28;20025;-45
2021/12/16 11:47:33;;;;;;;23.83;8.82;;;;;;;16.86;60.20;103758.81;5035596;28;20033;-47
2021/12/16 11:50:04;;;;;;;25.10;8.45;;;;;;;16.86;58.22;103753.38;5047219;28;20585;-48
2021/12/16 11:52:35;;;;;;;19.85;9.10;;;;;;;16.46;59.93;103754.56;5050842;28;20025;-47
2021/12/16 11:55:12;;;;;;;18.58;8.68;;;;;;;16.10;60.97;103755.41;5037059;28;20036;-45
2021/12/16 11:57:47;;;;;;;25.25;9.70;;;;;;;15.25;64.23;103748.91;5033380;28;20032;-45
2021/12/16 12:00:17;;;;;;;23.77;9.55;;;;;;;14.90;65.90;103752.97;5049263;28;20330;-45
2021/12/16 12:03:16;;;;;;;22.58;8.77;;;;;;;14.54;67.17;103755.31;5054162;28;20037;-44
2021/12/16 12:05:46;;;;;;;26.75;9.95;;;;;;;14.62;67.74;103752.78;5053044;28;20044;-47
2021/12/16 12:08:14;;;;;;;28.05;10.40;;;;;;;14.48;68.40;103748.56;5049666;28;20120;-48
2021/12/16 12:10:48;;;;;;;22.80;9.32;;;;;;;14.59;66.65;103753.06;5036029;28;20037;-43
2021/12/16 12:13:17;;;;;;;28.73;9.63;;;;;;;14.87;65.99;103753.25;5052657;28;20157;-45
2021/12/16 12:15:56;;;;;;;31.73;9.70;;;;;;;14.91;65.61;103757.44;5034754;28;20029;-44
2021/12/16 12:18:36;;;;;;;29.13;9.32;;;;;;;14.62;67.16;103746.50;5043565;28;20029;-44
2021/12/16 12:21:22;;;;;;;23.60;9.27;;;;;;;14.35;69.28;103747.94;5043400;28;20127;-44
2021/12/16 12:23:50;;;;;;;22.33;9.15;;;;;;;14.09;69.77;103750.25;5033829;28;20080;-45
2021/12/16 12:26:16;;;;;;;;;;;;;;;14.00;70.59;103740.19;5035135;28;20021;-45
2021/12/16 12:28:51;;;;;;;30.58;9.68;;;;;;;13.84;69.82;103741.53;5044589;28;19920;-44
2021/12/16 12:31:24;;;;;;;58.70;14.98;;;;;;;13.80;69.35;103739.25;5051690;28;20056;-45
2021/12/16 12:33:50;;;;;;;31.98;10.90;;;;;;;13.59;72.19;103736.53;5053985;28;20057;-46
2021/12/16 12:36:16;;;;;;;26.08;10.25;;;;;;;13.57;72.22;103728.53;5042835;28;20065;-44
2021/12/16 12:38:42;;;;;;;26.42;9.57;;;;;;;13.55;72.13;103726.94;5049703;28;20045;-48
2021/12/16 12:41:08;;;;;;;22.13;9.00;;;;;;;13.48;72.55;103733.84;5049297;28;20075;-46
2021/12/16 12:43:34;;;;;;;26.73;10.02;;;;;;;13.58;70.81;103740.19;5044014;28;20032;-43
2021/12/16 12:46:05;;;;;;;25.77;10.48;;;;;;;13.48;71.98;103740.16;5037056;28;20452;-44
2021/12/16 12:48:36;;;;;;;23.40;9.07;;;;;;;13.36;72.11;103735.75;5040004;28;20026;-44
2021/12/16 12:51:04;;;;;;;26.92;8.88;;;;;;;13.43;70.65;103738.78;5043570;28;20101;-43
2021/12/16 12:53:37;;;;;;;18.58;8.10;;;;;;;13.23;71.10;103743.16;5043279;28;20104;-42
2021/12/16 12:56:18;;;;;;;24.80;9.02;;;;;;;13.18;72.73;103738.13;5044738;28;20477;-44
2021/12/16 12:58:52;;;;;;;24.50;12.80;;;;;;;13.20;72.07;103740.72;5046660;28;20029;-44
2021/12/16 13:01:17;;;;;;;26.23;10.43;;;;;;;13.07;73.22;103749.00;5042898;28;20412;-44
2021/12/16 13:03:43;;;;;;;21.85;9.50;;;;;;;13.05;72.90;103749.09;5034197;28;20022;-47
2021/12/16 13:06:13;;;;;;;23.88;8.30;;;;;;;12.99;71.92;103743.38;5038604;28;20033;-45
2021/12/16 13:08:43;;;;;;;17.52;7.93;;;;;;;12.99;71.59;103733.41;5052070;28;20453;-46
2021/12/16 13:11:24;;;;;;;19.67;8.35;;;;;;;12.95;72.64;103738.22;5046873;28;20029;-43
2021/12/16 13:14:40;;;;;;;28.05;9.15;;;;;;;12.85;73.87;103742.66;5050018;28;20059;-45
2021/12/16 13:17:18;;;;;;;32.88;9.98;;;;;;;12.87;74.05;103742.53;5053049;28;20036;-46
2021/12/16 13:28:02;;;;;;;19.77;8.57;;;;;;;13.44;72.01;103748.66;5033412;28;20087;-45
2021/12/16 13:30:32;;;;;;;19.60;10.00;;;;;;;13.56;70.47;103747.59;5038979;28;20033;-48
2021/12/16 13:33:19;;;;;;;24.98;9.88;;;;;;;13.70;71.84;103755.41;5035304;28;20489;-46
2021/12/16 13:35:50;;;;;;;20.45;9.25;;;;;;;13.90;71.31;103752.81;5034503;28;20500;-45
2021/12/16 13:38:18;;;;;;;21.85;8.48;;;;;;;13.98;70.02;103753.88;5034451;28;20074;-45
2021/12/16 13:40:45;;;;;;;27.50;8.90;;;;;;;14.19;69.76;103748.44;5033867;28;20029;-46
2021/12/16 13:43:22;;;;;;;23.00;9.25;;;;;;;14.45;67.33;103745.25;5039013;28;20025;-47
2021/12/16 14:03:44;;;;;;;25.50;8.80;;;;;;;14.50;67.44;103745.72;5044512;28;20039;-47
2021/12/16 14:06:17;;;;;;;28.88;9.13;;;;;;;14.33;67.77;103754.50;5050957;28;20029;-47
2021/12/16 14:08:47;;;;;;;25.50;9.80;;;;;;;14.32;68.23;103753.63;5044473;28;20391;-45
2021/12/16 14:14:21;;;;;;;21.52;8.38;;;;;;;13.91;69.15;103749.13;5042581;28;20040;-45
2021/12/16 14:25:19;;;;;;;24.52;9.05;;;;;;;13.18;72.68;103755.22;5050704;28;20043;-43
2021/12/16 14:46:45;;;;;;;24.52;9.70;;;;;;;12.69;72.98;103769.19;5050322;28;20056;-43
2021/12/16 14:49:10;;;;;;;27.00;10.07;;;;;;;12.42;74.55;103761.47;5043221;28;20037;-43
2021/12/16 14:51:35;;;;;;;24.38;9.07;;;;;;;12.25;74.53;103765.53;5047857;28;20495;-43
2021/12/16 14:54:01;;;;;;;25.25;9.38;;;;;;;12.17;76.10;103767.97;5051200;28;20021;-44
2021/12/16 14:56:37;;;;;;;20.80;9.35;;;;;;;12.12;74.73;103772.88;5049982;28;20029;-43
2021/12/16 14:59:08;;;;;;;19.77;8.82;;;;;;;11.98;75.59;103779.34;5047852;28;20028;-43
2021/12/16 15:01:39;;;;;;;22.75;9.68;;;;;;;11.89;75.42;103775.53;5043204;28;20063;-44
2021/12/16 15:04:07;;;;;;;24.92;9.23;;;;;;;11.73;75.75;103785.75;5038051;28;20041;-46
2021/12/16 15:06:45;;;;;;;25.02;9.00;;;;;;;11.49;77.48;103786.66;5045718;28;20033;-44